Time;durP1;ratioP1;P1;durP2;ratioP2;P2;SDS_P1;SDS_P2;PMS_P1;PMS_P2;Temp;Humidity;BMP_temperature;BMP_pressure;BME280_temperature;BME280_humidity;BME280_pressure;Samples;Min_cycle;Max_cycle;Signal;HPM_P1;HPM_P2
2022/12/22 03:27:36;;;;;;;1.50;1.50;;;;;;;14.74;58.87;98084.28;7084128;27;20219;-77
2022/12/22 03:30:59;;;;;;;1.30;1.30;;;;;;;14.67;58.64;98067.38;7085037;27;20303;-77
2022/12/22 03:34:21;;;;;;;2.57;1.63;;;;;;;14.69;58.93;98064.41;7085476;27;20274;-77
2022/12/22 03:37:44;;;;;;;2.20;1.53;;;;;;;15.08;57.57;98080.44;7086881;27;20200;-77
2022/12/22 03:41:05;;;;;;;1.40;1.30;;;;;;;15.02;57.60;98075.19;7085564;27;20282;-77
2022/12/22 03:48:02;;;;;;;1.60;1.50;;;;;;;15.08;57.04;98066.03;7060369;27;20199;-77
2022/12/22 03:51:24;;;;;;;1.20;1.10;;;;;;;15.11;56.31;98013.97;7084793;27;20299;-77
2022/12/22 03:54:47;;;;;;;4.97;1.50;;;;;;;14.93;57.54;98035.97;7084925;27;20294;-78
2022/12/22 03:58:08;;;;;;;1.77;1.20;;;;;;;15.20;56.91;98028.72;7084840;27;20736;-77
2022/12/22 04:01:30;;;;;;;1.40;1.40;;;;;;;14.95;57.38;98037.38;7084235;27;20222;-77
2022/12/22 04:04:51;;;;;;;1.50;1.40;;;;;;;15.08;56.99;98025.31;7090077;27;20218;-77
2022/12/22 04:08:13;;;;;;;1.17;1.10;;;;;;;15.11;56.97;98030.25;7112643;27;20302;-77
2022/12/22 04:15:15;;;;;;;1.67;1.37;;;;;;;15.42;55.75;98030.41;7112873;27;20692;-76
2022/12/22 04:18:37;;;;;;;1.77;1.40;;;;;;;15.53;55.77;98042.19;7113466;27;20275;-76
2022/12/22 04:21:58;;;;;;;2.57;1.20;;;;;;;15.59;55.38;98039.28;7113132;27;20344;-77
2022/12/22 04:25:20;;;;;;;1.67;1.47;;;;;;;15.44;55.74;98024.69;7112633;27;20204;-76
2022/12/22 04:28:43;;;;;;;1.70;1.40;;;;;;;15.33;56.07;98020.25;7112250;27;20210;-76
2022/12/22 04:32:04;;;;;;;1.47;1.37;;;;;;;15.37;56.03;98029.50;7112850;27;20227;-76
2022/12/22 04:35:26;;;;;;;1.73;1.63;;;;;;;15.59;55.49;98016.72;7102451;27;20248;-76
2022/12/22 04:38:47;;;;;;;2.30;1.70;;;;;;;15.38;55.75;98025.69;7100012;27;20680;-76
2022/12/22 04:42:09;;;;;;;2.67;2.47;;;;;;;15.63;54.97;98007.78;7113070;27;20267;-76
2022/12/22 04:45:32;;;;;;;2.00;1.70;;;;;;;15.58;54.52;97990.63;7112761;27;20203;-76
2022/12/22 04:48:53;;;;;;;1.40;1.40;;;;;;;15.60;54.49;97966.72;7111897;27;20223;-77
2022/12/22 04:52:15;;;;;;;2.83;1.40;;;;;;;15.72;54.84;97994.56;7112899;27;20512;-76
2022/12/22 04:55:36;;;;;;;2.60;1.60;;;;;;;15.66;54.56;97990.16;7112307;27;20211;-77
2022/12/22 04:58:58;;;;;;;1.63;1.53;;;;;;;15.71;54.41;97992.94;7112574;27;20388;-76
2022/12/22 05:02:21;;;;;;;1.93;1.57;;;;;;;15.48;54.71;97990.50;7112356;27;20202;-76
2022/12/22 05:05:42;;;;;;;1.70;1.57;;;;;;;15.38;54.50;97976.81;7112215;27;20266;-77
2022/12/22 05:09:04;;;;;;;1.83;1.50;;;;;;;14.89;56.04;97996.84;7111155;27;20226;-76
2022/12/22 05:16:06;;;;;;;2.33;2.00;;;;;;;15.23;55.13;97985.56;7142945;27;20203;-76
2022/12/22 05:19:28;;;;;;;3.13;2.10;;;;;;;15.47;54.74;97986.16;7120325;27;20590;-77
2022/12/22 05:22:50;;;;;;;3.07;1.70;;;;;;;15.17;54.85;97958.63;7117598;27;20207;-76
2022/12/22 05:26:13;;;;;;;2.27;1.53;;;;;;;15.06;55.69;97997.59;7116857;27;20197;-76
2022/12/22 05:29:35;;;;;;;3.17;1.50;;;;;;;15.33;55.33;97993.09;7116271;27;20704;-76
2022/12/22 05:32:56;;;;;;;1.73;1.37;;;;;;;14.84;56.86;97983.19;7117302;27;20314;-76
2022/12/22 05:36:19;;;;;;;2.17;1.70;;;;;;;15.04;56.47;97997.03;7115675;27;20211;-77
2022/12/22 05:39:40;;;;;;;5.67;1.90;;;;;;;15.46;55.36;97989.97;7110946;27;20376;-76
2022/12/22 05:43:03;;;;;;;2.23;1.60;;;;;;;15.08;56.30;97977.28;7116776;27;20335;-77
2022/12/22 05:46:24;;;;;;;6.03;1.63;;;;;;;15.02;57.11;98012.75;7116304;27;20286;-76
2022/12/22 05:49:46;;;;;;;4.10;1.83;;;;;;;14.94;57.60;98008.59;7115901;27;20287;-76
2022/12/22 05:53:09;;;;;;;2.80;1.80;;;;;;;14.94;57.97;98002.34;7102939;27;20283;-76
2022/12/22 05:56:30;;;;;;;4.53;1.90;;;;;;;14.60;58.76;97989.94;7087923;27;20257;-76
2022/12/22 05:59:51;;;;;;;3.23;1.90;;;;;;;14.86;58.17;98008.22;7087933;27;20272;-76
2022/12/22 06:03:13;;;;;;;3.37;2.13;;;;;;;15.54;56.48;98005.78;7102549;27;20613;-77
2022/12/22 06:06:34;;;;;;;2.13;1.70;;;;;;;15.31;56.78;97996.00;7120265;27;20199;-76
2022/12/22 06:09:57;;;;;;;4.33;2.10;;;;;;;15.41;56.55;97995.34;7115699;27;20305;-76
2022/12/22 06:13:19;;;;;;;3.87;2.10;;;;;;;15.00;57.25;97980.44;7115992;27;20283;-76
2022/12/22 06:16:40;;;;;;;5.00;2.10;;;;;;;15.18;56.82;97982.00;7115542;27;20299;-76
2022/12/22 06:20:02;;;;;;;5.87;2.30;;;;;;;15.22;56.15;97978.50;7116897;27;20365;-77
2022/12/22 06:23:23;;;;;;;3.30;2.00;;;;;;;15.09;56.80;97980.78;7115869;27;20231;-77
2022/12/22 06:26:46;;;;;;;5.53;2.23;;;;;;;15.35;55.76;97982.78;7115308;27;20251;-76
2022/12/22 06:30:09;;;;;;;3.37;2.03;;;;;;;15.40;55.32;97972.75;7113981;27;20237;-76
2022/12/22 06:33:30;;;;;;;5.13;2.60;;;;;;;15.43;54.80;97969.56;7099323;27;20280;-77
2022/12/22 06:36:52;;;;;;;3.70;1.93;;;;;;;15.31;54.91;97979.72;7085052;27;20203;-76
2022/12/22 06:40:13;;;;;;;4.97;2.03;;;;;;;15.09;55.63;97981.63;7114765;27;20223;-77
2022/12/22 06:43:36;;;;;;;7.30;2.67;;;;;;;14.56;56.79;97983.34;7114577;27;20223;-76
2022/12/22 06:46:58;;;;;;;5.93;2.20;;;;;;;14.98;55.95;97987.19;7113704;27;20204;-76
2022/12/22 06:50:19;;;;;;;4.73;1.87;;;;;;;15.46;54.41;97992.69;7114056;27;20360;-77
2022/12/22 06:53:41;;;;;;;5.67;2.17;;;;;;;15.32;54.35;97983.22;7096756;27;20229;-77
2022/12/22 06:57:02;;;;;;;5.70;1.93;;;;;;;15.28;54.19;97963.13;7085751;27;20300;-77
2022/12/22 07:00:25;;;;;;;4.07;2.23;;;;;;;15.58;53.79;97977.84;7087448;27;20226;-76
2022/12/22 07:03:47;;;;;;;5.03;2.50;;;;;;;15.76;52.92;97976.66;7087196;27;20213;-76
2022/12/22 07:07:08;;;;;;;4.40;2.00;;;;;;;16.01;52.53;98002.19;7087113;27;20345;-77
2022/12/22 07:14:09;;;;;;;5.03;2.13;;;;;;;15.47;53.94;98008.72;7115375;27;20560;-77
2022/12/22 07:17:32;;;;;;;6.03;2.00;;;;;;;15.87;52.91;98013.75;7115024;27;20681;-77
2022/12/22 07:20:53;;;;;;;4.07;2.17;;;;;;;15.59;53.06;98005.84;7115878;27;20243;-76
2022/12/22 07:24:21;;;;;;;5.83;2.10;;;;;;;15.30;53.73;98026.97;7115957;27;20807;-76
2022/12/22 07:27:43;;;;;;;3.93;2.30;;;;;;;15.84;52.08;98019.69;7115106;27;20629;-77
2022/12/22 07:31:05;;;;;;;6.40;2.20;;;;;;;15.59;52.13;97989.53;7115614;27;20314;-77
2022/12/22 07:34:28;;;;;;;4.67;2.60;;;;;;;15.62;52.68;98035.25;7115482;27;20210;-79
2022/12/22 07:37:49;;;;;;;7.33;2.60;;;;;;;15.76;52.98;98028.31;7110729;27;20214;-78
2022/12/22 07:44:51;;;;;;;4.07;2.30;;;;;;;16.05;51.44;98032.41;7114567;27;20200;-77
2022/12/22 07:51:50;;;;;;;5.00;2.30;;;;;;;15.53;52.59;98047.63;7113628;27;20237;-77
2022/12/22 07:55:12;;;;;;;7.57;2.60;;;;;;;15.39;52.80;98041.75;7085926;27;20197;-78
2022/12/22 07:58:34;;;;;;;5.27;2.40;;;;;;;15.46;52.85;98066.03;7085841;27;20207;-76
2022/12/22 08:01:56;;;;;;;4.93;2.43;;;;;;;15.03;54.07;98069.50;7086451;27;20726;-77
2022/12/22 08:05:18;;;;;;;9.03;2.40;;;;;;;15.16;53.54;98052.84;7085588;27;20219;-76
2022/12/22 08:08:40;;;;;;;6.63;2.90;;;;;;;14.74;55.64;97996.66;7086198;27;20263;-76
2022/12/22 08:12:02;;;;;;;5.50;2.13;;;;;;;15.36;54.21;98028.69;7109197;27;20740;-77
2022/12/22 08:15:23;;;;;;;5.77;2.47;;;;;;;15.47;53.79;98043.22;7114178;27;20289;-77
2022/12/22 08:18:45;;;;;;;6.97;2.83;;;;;;;15.31;53.81;98042.19;7104624;27;20275;-77
2022/12/22 08:22:06;;;;;;;8.67;2.53;;;;;;;15.15;53.78;98034.09;7114739;27;20659;-77
2022/12/22 08:25:30;;;;;;;5.40;2.77;;;;;;;15.45;53.27;98053.53;7113652;27;20211;-76
2022/12/22 08:28:55;;;;;;;6.73;2.27;;;;;;;15.20;54.13;98029.56;7114258;27;20234;-76
2022/12/22 08:32:17;;;;;;;8.13;2.57;;;;;;;15.26;53.75;98031.25;7114845;27;20445;-76
2022/12/22 08:35:38;;;;;;;7.83;2.53;;;;;;;15.26;53.77;98036.69;7114118;27;20200;-77
2022/12/22 08:39:01;;;;;;;5.37;2.07;;;;;;;15.53;53.18;98043.03;7113781;27;20688;-76
2022/12/22 08:42:25;;;;;;;7.97;2.80;;;;;;;15.62;53.37;98025.16;7114409;27;20188;-77
2022/12/22 08:45:46;;;;;;;7.23;2.30;;;;;;;16.09;51.76;98012.56;7115202;27;20818;-77
2022/12/22 08:49:08;;;;;;;5.70;1.97;;;;;;;16.15;51.38;98022.41;7119286;27;20340;-77
2022/12/22 08:52:30;;;;;;;9.83;2.90;;;;;;;16.29;50.72;98011.94;7119515;27;20654;-77
2022/12/22 08:55:52;;;;;;;8.27;3.33;;;;;;;16.22;51.05;98031.19;7119151;27;20251;-76
2022/12/22 08:59:16;;;;;;;5.37;2.43;;;;;;;15.94;51.38;98027.94;7119835;27;20568;-76
2022/12/22 09:02:37;;;;;;;6.67;2.90;;;;;;;16.27;50.36;98014.09;7119337;27;20297;-76
2022/12/22 09:06:00;;;;;;;4.23;2.20;;;;;;;16.06;50.44;98013.09;7119265;27;20207;-76
2022/12/22 09:09:22;;;;;;;6.03;2.60;;;;;;;16.24;50.41;98018.16;7119574;27;20216;-76
2022/12/22 09:12:43;;;;;;;5.20;2.27;;;;;;;16.24;50.19;98031.75;7096879;27;20729;-76
2022/12/22 09:16:07;;;;;;;6.67;2.70;;;;;;;16.13;50.29;98031.91;7090584;27;20594;-76
2022/12/22 09:19:28;;;;;;;3.70;2.40;;;;;;;17.09;48.30;98026.06;7090391;27;20223;-76
2022/12/22 09:22:50;;;;;;;7.40;2.80;;;;;;;17.68;47.17;98002.88;7090460;27;20299;-77
2022/12/22 09:26:13;;;;;;;4.43;2.53;;;;;;;17.13;48.66;98035.34;7089813;27;20291;-77
2022/12/22 09:29:35;;;;;;;9.10;2.47;;;;;;;16.32;50.28;98025.81;7089829;27;20338;-77
2022/12/22 09:32:57;;;;;;;7.67;2.80;;;;;;;15.78;53.12;98056.03;7090263;27;20260;-77
2022/12/22 09:36:22;;;;;;;5.63;2.50;;;;;;;15.90;53.32;98046.66;7088988;27;20295;-77
2022/12/22 09:39:43;;;;;;;6.90;2.60;;;;;;;15.91;54.28;98070.06;7090871;27;20719;-76
2022/12/22 09:43:05;;;;;;;6.47;2.40;;;;;;;15.81;54.72;98064.50;7090441;27;20208;-77
2022/12/22 09:46:28;;;;;;;7.17;2.77;;;;;;;15.57;55.02;98049.56;7089983;27;20203;-77
2022/12/22 09:49:51;;;;;;;5.93;2.20;;;;;;;15.01;56.94;98070.81;7116306;27;20301;-77
2022/12/22 09:53:17;;;;;;;7.00;2.50;;;;;;;15.10;57.40;98072.06;7118672;27;20356;-76
2022/12/22 09:56:39;;;;;;;7.73;2.67;;;;;;;14.97;57.37;98084.09;7118634;27;20234;-77
2022/12/22 10:00:07;;;;;;;7.60;2.30;;;;;;;14.72;58.57;98075.59;7118824;27;20220;-77
2022/12/22 10:03:33;;;;;;;6.23;2.30;;;;;;;15.01;57.98;98057.25;7118293;27;20329;-77
2022/12/22 10:06:59;;;;;;;7.77;2.63;;;;;;;14.62;58.78;98050.19;7117593;27;20275;-77
2022/12/22 10:10:24;;;;;;;7.27;2.30;;;;;;;14.66;58.97;98060.31;7118038;27;20835;-77
2022/12/22 10:13:45;;;;;;;4.43;2.30;;;;;;;14.49;59.05;98056.78;7117497;27;20222;-77
2022/12/22 10:17:22;;;;;;;6.10;2.30;;;;;;;14.90;58.70;98074.47;7116678;27;20612;-76
2022/12/22 10:20:46;;;;;;;8.67;2.57;;;;;;;14.44;59.40;98069.44;7117870;27;20295;-77
2022/12/22 10:24:27;;;;;;;7.83;3.30;;;;;;;14.64;59.69;98072.47;7117266;27;20236;-77
2022/12/22 10:27:48;;;;;;;4.80;2.10;;;;;;;15.06;58.24;98074.44;7117631;27;20291;-76
2022/12/22 10:31:14;;;;;;;4.00;1.80;;;;;;;14.64;59.40;98078.69;7117489;27;20352;-76
2022/12/22 10:34:36;;;;;;;6.23;2.50;;;;;;;14.94;59.63;98092.75;7117823;27;20286;-79
2022/12/22 10:37:58;;;;;;;5.50;2.50;;;;;;;15.48;57.68;98085.59;7116125;27;20285;-76
2022/12/22 10:41:22;;;;;;;5.13;2.47;;;;;;;15.27;58.53;98086.41;7117609;27;20238;-77
2022/12/22 10:44:46;;;;;;;6.87;2.63;;;;;;;15.49;57.99;98095.38;7114406;27;20253;-77
2022/12/22 10:48:07;;;;;;;7.17;2.10;;;;;;;15.05;59.54;98101.84;7105464;27;20246;-75
2022/12/22 10:51:29;;;;;;;4.43;2.17;;;;;;;15.20;59.43;98105.59;7115566;27;20231;-76
2022/12/22 10:54:50;;;;;;;5.17;2.20;;;;;;;15.01;59.70;98095.25;7115399;27;20655;-76
2022/12/22 10:58:18;;;;;;;6.17;2.90;;;;;;;15.00;60.51;98080.88;7116733;27;20266;-77
2022/12/22 11:01:39;;;;;;;9.23;2.03;;;;;;;15.35;59.86;98088.69;7087916;27;20275;-77
2022/12/22 11:05:03;;;;;;;4.20;2.13;;;;;;;15.07;59.54;98083.41;7112331;27;20207;-78
2022/12/22 11:08:25;;;;;;;6.13;2.43;;;;;;;14.96;60.00;98081.63;7115603;27;20286;-77
2022/12/22 11:11:50;;;;;;;4.10;2.10;;;;;;;15.10;59.59;98055.75;7116147;27;20287;-77
2022/12/22 11:15:20;;;;;;;4.70;2.20;;;;;;;15.66;58.21;98077.09;7115729;27;20555;-77
2022/12/22 11:18:51;;;;;;;8.53;2.40;;;;;;;15.11;58.21;98063.63;7110410;27;20252;-77
2022/12/22 11:22:21;;;;;;;4.77;2.33;;;;;;;15.39;57.91;98062.69;7116476;27;20251;-77
2022/12/22 11:25:55;;;;;;;4.80;2.10;;;;;;;15.19;58.61;98043.38;7114479;27;20293;-78
2022/12/22 11:29:30;;;;;;;6.03;2.23;;;;;;;15.62;57.69;98073.28;7115476;27;20294;-77
2022/12/22 11:33:07;;;;;;;4.03;1.80;;;;;;;15.63;57.30;98051.25;7114859;27;20452;-78
2022/12/22 11:36:37;;;;;;;3.97;2.23;;;;;;;15.61;57.36;98069.72;7114893;27;20331;-78
2022/12/22 11:40:05;;;;;;;5.87;2.40;;;;;;;15.53;57.48;98072.06;7115499;27;20360;-77
2022/12/22 11:43:29;;;;;;;5.40;2.93;;;;;;;15.68;57.46;98075.78;7116194;27;20273;-77
2022/12/22 11:46:54;;;;;;;3.50;1.97;;;;;;;15.06;58.51;98074.44;7116283;27;20265;-78
2022/12/22 11:50:26;;;;;;;6.87;2.40;;;;;;;15.30;57.87;98089.44;7114275;27;20250;-77
2022/12/22 11:54:06;;;;;;;3.40;2.00;;;;;;;15.31;58.13;98088.34;7115347;27;20286;-76
2022/12/22 11:57:32;;;;;;;5.23;3.23;;;;;;;15.90;56.76;98079.28;7115298;27;20795;-78
2022/12/22 12:01:00;;;;;;;5.67;2.83;;;;;;;15.41;57.61;98069.50;7116295;27;20849;-77
2022/12/22 12:04:40;;;;;;;5.53;3.50;;;;;;;15.26;57.96;98068.44;7112248;27;20292;-78
2022/12/22 12:08:10;;;;;;;2.53;2.00;;;;;;;15.37;57.53;98078.41;7114027;27;20275;-77
2022/12/22 12:11:35;;;;;;;2.63;2.10;;;;;;;15.60;56.51;98068.09;7114607;27;20314;-77
2022/12/22 12:15:08;;;;;;;5.90;3.37;;;;;;;15.68;56.38;98096.72;7114043;27;20734;-77
2022/12/22 12:18:44;;;;;;;5.97;2.10;;;;;;;15.68;56.37;98102.97;7114032;27;20203;-77
2022/12/22 12:22:08;;;;;;;6.03;3.10;;;;;;;16.02;55.63;98090.84;7119006;27;20230;-78
2022/12/22 12:25:36;;;;;;;3.43;1.70;;;;;;;15.79;55.89;98109.31;7120027;27;20231;-78
2022/12/22 12:29:06;;;;;;;3.93;2.27;;;;;;;16.14;55.38;98105.09;7120251;27;20234;-78
2022/12/22 12:32:30;;;;;;;5.70;2.23;;;;;;;16.16;55.02;98094.75;7118136;27;20244;-78
2022/12/22 12:35:59;;;;;;;3.60;2.90;;;;;;;16.16;55.40;98110.28;7090493;27;20203;-78
2022/12/22 12:39:26;;;;;;;7.93;7.23;;;;;;;16.02;55.82;98104.44;7091272;27;20308;-78
2022/12/22 12:42:50;;;;;;;3.23;1.70;;;;;;;16.16;54.45;98111.09;7114835;27;20189;-77
2022/12/22 12:46:43;;;;;;;5.83;2.23;;;;;;;16.39;54.18;98110.78;7112973;27;20677;-77
2022/12/22 12:50:31;;;;;;;6.40;3.80;;;;;;;16.67;53.45;98120.53;7118668;27;20215;-78
2022/12/22 12:54:26;;;;;;;2.53;1.53;;;;;;;16.36;53.58;98103.13;7120499;27;20248;-77
2022/12/22 12:57:49;;;;;;;3.03;1.63;;;;;;;16.56;53.21;98114.19;7090657;27;20231;-76
2022/12/22 13:01:12;;;;;;;5.83;2.33;;;;;;;16.51;53.54;98114.16;7119215;27;20284;-77
2022/12/22 13:05:11;;;;;;;2.80;1.67;;;;;;;16.46;53.13;98133.16;7120519;27;20219;-76
2022/12/22 13:08:34;;;;;;;9.10;3.20;;;;;;;16.64;52.42;98123.81;7096483;27;20203;-75
2022/12/22 13:11:55;;;;;;;1.87;1.60;;;;;;;16.50;53.16;98142.47;7119834;27;20228;-76
2022/12/22 13:15:29;;;;;;;3.23;1.57;;;;;;;16.60;52.26;98133.56;7118965;27;20200;-75
2022/12/22 13:18:51;;;;;;;2.07;1.30;;;;;;;15.95;52.89;98120.13;7118671;27;20368;-77
2022/12/22 13:22:13;;;;;;;3.67;1.70;;;;;;;16.32;52.68;98169.16;7118485;27;20284;-75
2022/12/22 13:25:41;;;;;;;2.53;1.60;;;;;;;16.08;53.35;98170.56;7089805;27;20781;-76
2022/12/22 13:29:08;;;;;;;2.13;1.80;;;;;;;16.26;53.24;98168.31;7089996;27;20230;-76
2022/12/22 13:32:34;;;;;;;1.97;1.60;;;;;;;16.72;52.40;98180.47;7097534;27;20211;-76
2022/12/22 13:35:57;;;;;;;3.03;1.90;;;;;;;16.36;52.52;98148.53;7090352;27;20606;-76
2022/12/22 13:39:18;;;;;;;4.30;1.93;;;;;;;16.19;53.76;98184.03;7089785;27;20287;-77
2022/12/22 13:42:42;;;;;;;2.33;1.83;;;;;;;16.41;53.17;98182.13;7090361;27;20232;-77
2022/12/22 13:46:04;;;;;;;4.10;2.53;;;;;;;16.30;53.43;98174.06;7089577;27;20342;-77
2022/12/22 13:49:28;;;;;;;7.83;2.50;;;;;;;16.79;52.15;98183.78;7108929;27;20215;-77
2022/12/22 13:52:51;;;;;;;1.73;1.60;;;;;;;16.53;53.04;98188.22;7118508;27;20232;-76
2022/12/22 13:56:14;;;;;;;2.30;2.10;;;;;;;17.06;51.00;98190.03;7117530;27;20232;-75
2022/12/22 13:59:39;;;;;;;2.10;1.50;;;;;;;16.51;52.32;98205.88;7118041;27;20720;-77
2022/12/22 14:03:00;;;;;;;3.10;2.30;;;;;;;16.48;52.44;98200.94;7116714;27;20207;-77
2022/12/22 14:06:28;;;;;;;3.17;1.93;;;;;;;16.20;53.56;98193.81;7118090;27;20188;-77
2022/12/22 14:09:50;;;;;;;2.70;1.67;;;;;;;16.39;52.82;98199.78;7117686;27;20380;-77
2022/12/22 14:13:14;;;;;;;4.03;1.70;;;;;;;16.49;52.76;98208.00;7117983;27;20328;-76
2022/12/22 14:16:42;;;;;;;1.97;1.37;;;;;;;16.64;52.23;98211.69;7117304;27;20675;-78
2022/12/22 14:20:16;;;;;;;4.50;2.10;;;;;;;16.03;54.26;98190.34;7117896;27;20314;-78
2022/12/22 14:23:41;;;;;;;3.70;2.13;;;;;;;16.37;52.94;98210.88;7118380;27;20183;-78
2022/12/22 14:27:02;;;;;;;3.07;2.13;;;;;;;16.32;53.31;98194.50;7117440;27;20263;-76
2022/12/22 14:30:26;;;;;;;3.50;2.30;;;;;;;16.67;52.36;98200.31;7117724;27;20289;-77
2022/12/22 14:33:52;;;;;;;5.33;1.67;;;;;;;16.43;52.71;98204.44;7105776;27;20224;-77
2022/12/22 14:37:24;;;;;;;2.70;1.73;;;;;;;16.55;52.16;98207.81;7090447;27;20203;-77
2022/12/22 14:40:46;;;;;;;3.50;1.87;;;;;;;16.57;52.33;98218.47;7089171;27;20317;-78
2022/12/22 14:44:13;;;;;;;5.53;2.10;;;;;;;16.63;51.98;98220.94;7087779;27;20669;-77
2022/12/22 14:47:36;;;;;;;2.90;1.93;;;;;;;16.47;51.75;98210.19;7090130;27;20245;-76
2022/12/22 14:51:01;;;;;;;1.93;1.83;;;;;;;16.25;52.17;98228.41;7090744;27;20321;-77
2022/12/22 14:54:25;;;;;;;6.30;2.60;;;;;;;16.10;52.66;98234.50;7086902;27;20700;-77
2022/12/22 14:57:52;;;;;;;6.10;2.47;;;;;;;16.39;52.34;98229.69;7087851;27;20204;-76
2022/12/22 15:01:22;;;;;;;6.97;2.50;;;;;;;16.36;51.74;98238.31;7085861;27;20250;-76
2022/12/22 15:04:43;;;;;;;6.67;2.63;;;;;;;15.77;53.23;98245.50;7087431;27;20345;-76
2022/12/22 15:08:06;;;;;;;8.37;2.53;;;;;;;15.58;54.22;98244.13;7088198;27;20706;-77
2022/12/22 15:11:30;;;;;;;4.87;2.33;;;;;;;16.07;53.21;98245.88;7087146;27;20311;-76
2022/12/22 15:14:53;;;;;;;5.00;2.93;;;;;;;16.56;52.03;98263.06;7086661;27;20228;-76
2022/12/22 15:18:15;;;;;;;4.70;2.47;;;;;;;16.21;52.00;98247.13;7086453;27;20291;-76
2022/12/22 15:21:36;;;;;;;8.63;3.33;;;;;;;15.61;54.24;98248.25;7104356;27;20709;-76
2022/12/22 15:24:58;;;;;;;4.83;2.80;;;;;;;16.29;52.66;98248.59;7115350;27;20284;-77
2022/12/22 15:28:19;;;;;;;7.67;2.80;;;;;;;16.09;53.09;98281.81;7116384;27;20308;-77
2022/12/22 15:31:43;;;;;;;5.67;3.20;;;;;;;15.81;53.83;98286.59;7115787;27;20360;-76
2022/12/22 15:35:14;;;;;;;6.17;2.70;;;;;;;15.24;54.98;98268.84;7115351;27;21300;-76
2022/12/22 15:38:38;;;;;;;5.40;2.63;;;;;;;15.65;54.12;98279.28;7115629;27;20184;-76
2022/12/22 15:41:59;;;;;;;7.30;3.00;;;;;;;15.97;53.39;98280.25;7115561;27;20207;-76
2022/12/22 15:45:21;;;;;;;6.67;2.50;;;;;;;15.27;54.58;98284.66;7114798;27;20195;-76
2022/12/22 15:48:45;;;;;;;6.43;2.70;;;;;;;15.26;55.15;98286.53;7114123;27;20210;-75
2022/12/22 15:52:11;;;;;;;7.20;3.07;;;;;;;15.27;54.81;98290.91;7113456;27;20320;-76
2022/12/22 15:55:34;;;;;;;5.97;2.90;;;;;;;15.28;54.85;98275.44;7112410;27;20303;-76
2022/12/22 15:58:55;;;;;;;6.77;2.73;;;;;;;15.33;54.80;98281.78;7112905;27;20251;-76
2022/12/22 16:02:17;;;;;;;5.20;2.73;;;;;;;15.40;54.85;98278.91;7112159;27;20292;-76
2022/12/22 16:05:40;;;;;;;7.57;2.57;;;;;;;15.70;54.13;98290.25;7112822;27;20182;-76
2022/12/22 16:09:06;;;;;;;5.50;2.27;;;;;;;15.95;53.23;98276.97;7112995;27;20311;-73
2022/12/22 16:12:29;;;;;;;7.43;2.67;;;;;;;15.60;53.42;98249.31;7104305;27;20335;-76
2022/12/22 16:15:50;;;;;;;10.77;3.40;;;;;;;15.66;53.43;98270.91;7113046;27;20206;-78
2022/12/22 16:19:13;;;;;;;8.90;3.33;;;;;;;15.44;54.35;98278.16;7113407;27;20226;-79
2022/12/22 16:22:36;;;;;;;7.27;3.10;;;;;;;15.50;53.86;98269.00;7113117;27;20358;-76
2022/12/22 16:26:00;;;;;;;6.97;3.33;;;;;;;15.70;53.46;98276.66;7091741;27;20211;-76
2022/12/22 16:29:21;;;;;;;11.33;4.20;;;;;;;15.75;53.00;98258.50;7083128;28;20240;-76
2022/12/22 16:32:44;;;;;;;6.83;2.80;;;;;;;15.75;52.63;98279.44;7103592;27;20347;-76
2022/12/22 16:36:06;;;;;;;7.60;2.93;;;;;;;15.83;52.15;98277.13;7104356;27;20198;-76
2022/12/22 16:39:29;;;;;;;9.73;3.33;;;;;;;15.77;52.12;98266.41;7112881;27;20310;-76
2022/12/22 16:42:57;;;;;;;8.33;2.73;;;;;;;16.06;51.27;98273.31;7113446;27;20347;-76
2022/12/22 16:46:20;;;;;;;7.90;3.40;;;;;;;16.12;51.10;98251.41;7112456;27;20187;-76
2022/12/22 16:49:44;;;;;;;6.53;2.90;;;;;;;15.41;52.37;98256.09;7112982;27;20311;-76
2022/12/22 16:53:06;;;;;;;6.90;3.13;;;;;;;15.65;51.82;98261.09;7112395;27;20296;-76
2022/12/22 16:56:30;;;;;;;7.53;2.70;;;;;;;15.66;51.77;98262.75;7112688;27;20266;-76
2022/12/22 16:59:52;;;;;;;8.30;3.07;;;;;;;16.13;51.33;98257.63;7111854;27;20225;-76
2022/12/22 17:03:15;;;;;;;9.07;2.83;;;;;;;15.42;52.91;98255.88;7111802;27;20204;-76
2022/12/22 17:06:37;;;;;;;11.40;3.20;;;;;;;15.76;51.89;98256.63;7113324;27;20278;-78
2022/12/22 17:10:00;;;;;;;10.00;3.63;;;;;;;15.77;52.00;98240.06;7117845;27;20287;-77
2022/12/22 17:13:23;;;;;;;12.10;3.30;;;;;;;15.66;52.54;98234.72;7118247;27;20234;-76
2022/12/22 17:16:45;;;;;;;10.13;3.30;;;;;;;15.57;52.70;98244.41;7117730;27;20356;-75
2022/12/22 17:20:09;;;;;;;9.30;3.43;;;;;;;15.55;52.84;98239.22;7094846;27;20311;-74
2022/12/22 17:23:32;;;;;;;11.77;3.30;;;;;;;15.82;52.28;98244.75;7089183;27;20280;-75
2022/12/22 17:26:54;;;;;;;7.57;2.90;;;;;;;15.44;53.28;98217.56;7088514;27;20263;-76
2022/12/22 17:30:19;;;;;;;17.27;4.27;;;;;;;15.25;53.89;98238.72;7088672;27;20315;-76
2022/12/22 17:33:40;;;;;;;13.63;3.33;;;;;;;15.65;52.93;98235.81;7088744;27;20227;-76
2022/12/22 17:37:02;;;;;;;16.10;3.57;;;;;;;15.95;52.01;98222.59;7088178;27;20731;-77
2022/12/22 17:40:25;;;;;;;14.47;4.13;;;;;;;15.76;52.54;98219.38;7088261;27;20303;-76
2022/12/22 17:43:46;;;;;;;10.67;3.73;;;;;;;15.81;52.25;98224.06;7088575;27;20196;-76
2022/12/22 17:47:12;;;;;;;9.80;3.47;;;;;;;16.00;51.84;98217.25;7088081;27;20610;-77
2022/12/22 17:50:33;;;;;;;7.13;3.23;;;;;;;15.80;52.34;98209.66;7088809;27;20311;-76
2022/12/22 17:53:56;;;;;;;12.87;5.03;;;;;;;16.02;51.57;98202.31;7105328;27;20256;-76
2022/12/22 17:57:20;;;;;;;17.90;5.40;;;;;;;15.38;53.60;98208.53;7114922;27;20226;-77
2022/12/22 18:00:42;;;;;;;10.03;3.50;;;;;;;15.40;53.89;98202.84;7114670;27;20753;-77
2022/12/22 18:04:08;;;;;;;11.97;3.37;;;;;;;15.41;53.49;98186.31;7112661;27;20207;-76
2022/12/22 18:07:29;;;;;;;12.07;3.97;;;;;;;15.30;54.87;98192.63;7114325;27;20204;-76
2022/12/22 18:10:51;;;;;;;13.97;3.80;;;;;;;15.34;54.89;98173.97;7115588;27;20328;-76
2022/12/22 18:14:14;;;;;;;14.67;4.00;;;;;;;15.24;55.27;98165.66;7108143;27;20220;-76
2022/12/22 18:17:35;;;;;;;11.70;3.90;;;;;;;15.07;55.62;98160.25;7109443;27;20225;-77
2022/12/22 18:20:58;;;;;;;13.50;4.27;;;;;;;15.26;55.29;98168.91;7113468;27;20226;-77
2022/12/22 18:24:20;;;;;;;13.30;4.00;;;;;;;15.56;54.56;98159.34;7113075;27;20267;-76
2022/12/22 18:27:42;;;;;;;11.87;3.93;;;;;;;15.23;55.65;98166.72;7112949;27;20199;-77
2022/12/22 18:31:03;;;;;;;12.00;3.87;;;;;;;15.43;55.25;98161.59;7114446;27;20223;-76
2022/12/22 18:34:25;;;;;;;12.53;4.17;;;;;;;15.06;56.28;98164.03;7112831;27;20215;-75
2022/12/22 18:37:48;;;;;;;10.13;4.23;;;;;;;15.11;56.18;98145.09;7112478;27;20286;-76
2022/12/22 18:41:09;;;;;;;16.47;5.00;;;;;;;15.05;55.75;98146.09;7113483;27;20254;-76
2022/12/22 18:44:31;;;;;;;13.20;4.30;;;;;;;15.17;55.32;98137.84;7113551;27;20592;-77
2022/12/22 18:47:52;;;;;;;13.63;4.10;;;;;;;15.52;54.14;98133.72;7112539;27;20684;-76
2022/12/22 18:51:18;;;;;;;21.77;4.47;;;;;;;15.53;53.97;98132.69;7113700;27;20222;-76
2022/12/22 18:54:41;;;;;;;10.30;4.03;;;;;;;15.20;54.04;98130.03;7111678;27;20230;-76
2022/12/22 18:58:02;;;;;;;10.20;3.67;;;;;;;14.98;54.68;98121.00;7114194;27;20283;-76
2022/12/22 19:01:26;;;;;;;14.23;3.97;;;;;;;15.27;54.14;98129.84;7113484;27;20355;-76
2022/12/22 19:04:47;;;;;;;8.87;3.73;;;;;;;15.29;53.79;98117.63;7110481;27;20296;-76
2022/12/22 19:08:14;;;;;;;12.80;4.10;;;;;;;15.31;53.70;98120.09;7103716;27;20199;-77
2022/12/22 19:11:37;;;;;;;11.13;3.50;;;;;;;15.50;53.17;98114.16;7112706;27;20359;-76
2022/12/22 19:15:02;;;;;;;11.30;3.90;;;;;;;15.50;52.48;98122.31;7113602;27;20275;-76
2022/12/22 19:18:25;;;;;;;10.47;4.93;;;;;;;15.58;52.04;98118.31;7114432;27;20214;-76
2022/12/22 19:21:48;;;;;;;8.50;3.80;;;;;;;15.45;52.64;98108.66;7113682;27;20275;-76
2022/12/22 19:25:13;;;;;;;13.57;4.70;;;;;;;15.31;52.99;98084.81;7114011;27;20195;-76
2022/12/22 19:28:38;;;;;;;12.77;4.50;;;;;;;15.57;52.37;98090.31;7113759;27;20255;-75
2022/12/22 19:31:59;;;;;;;12.30;4.50;;;;;;;16.02;51.59;98090.84;7112931;27;20203;-77
2022/12/22 19:35:22;;;;;;;12.50;4.47;;;;;;;15.90;51.11;98073.84;7095828;27;20223;-76
2022/12/22 19:38:44;;;;;;;10.83;4.30;;;;;;;15.98;51.09;98086.97;7113529;27;20572;-76
2022/12/22 19:42:05;;;;;;;13.40;4.37;;;;;;;16.21;50.57;98078.50;7114170;27;20263;-76
2022/12/22 19:45:34;;;;;;;10.27;3.97;;;;;;;15.66;51.71;98071.69;7113191;27;20290;-77